Airfield :
LOGIN :

Register | Disclaimer

   EN    FR    IT 

 










Legend :    VFR   Marginal VFR   IFR   Intensive IFR   Very Intensive IFR
Visi :
Ceiling :
>= 8 km
>= 3000ft
5 to 8 km
1000 to 3000 ft
1500m to 5 km
500 to 1000 ft
800 to 1500m
200 to 500 ft
< 800m
< 200 ft
Symbols :   Thunderstorms  Fog  Heavy snow  Heavy precipitations  Wind > 20 kt
SIGMETs :     Misc.  Thunderstorms  Icing  Turbulence  Mountain Waves  Volcanic Ashes







- Airport Elevation : 74 ft
- IATA code : EIN


EHEH - Eindhoven

CURRENT METAR :
  • 171355Z AUTO 33004KT 330V100 9999 BKN061 23/11 Q1015 BLU VRB03KT 9999 BKN036

EXPIRED METARs :
  • 171325Z AUTO VRB03KT 9999 BKN041 OVC050 23/11 Q1015 BLU VRB03KT 9999 BKN036
  • 171255Z AUTO VRB03KT 9999 OVC041 23/11 Q1015 BLU VRB03KT 9999 BKN036
  • 171225Z AUTO VRB03KT 9999 SCT038 22/12 Q1015 BLU VRB03KT 9999 BKN036
  • 171155Z AUTO VRB02KT 9999 BKN036 22/12 Q1015 BLU VRB03KT 9999 BKN036
  • 171125Z AUTO VRB02KT 9999 BKN035 22/12 Q1015 BLU VRB03KT 9999 BKN036

TAF TAF EHEH
Valid from the 17 at 12:00 until the 18 at 18:00 UTC


171108Z 1712/1818 VRB03KT 9999 SCT032
BECMG 1712/1714 36004KT
BECMG 1721/1724 13005KT
BECMG 1804/1807 24008KT
No reported NOTAMs for that airfield.



MET'MAP, your aeronautical weather chart ! - Copyright ORBIFLY December 2007 - Disclaimer

ORBIFLY MET'MAP TEAM :

Programming & Development : Alexandra Zaïnal
Concept & Development : Baudouin d'Aumeries
Co-Development & Prog : Marc-Olivier Méhu
Technical & hardware support : Manuel Goepfert

Contact : metmap@orbifly.com




SOURCES & CREDITS :

   NOAA